createdAt,value
2023-01-27T00:04:34.053Z,1.33
2023-01-27T00:09:37.781Z,2.33
2023-01-27T00:14:41.603Z,1.10
2023-01-27T00:19:46.819Z,1.80
2023-01-27T00:24:50.448Z,1.52
2023-01-27T00:29:54.182Z,1.90
2023-01-27T00:34:59.258Z,1.92
2023-01-27T00:40:02.938Z,1.83
2023-01-27T00:45:27.979Z,2.25
2023-01-27T00:50:32.988Z,1.40
2023-01-27T00:55:36.675Z,1.40
2023-01-27T01:00:40.644Z,1.48
2023-01-27T01:05:45.677Z,1.75
2023-01-27T01:10:49.436Z,1.85
2023-01-27T01:15:53.118Z,1.58
2023-01-27T01:20:58.177Z,2.00
2023-01-27T01:26:01.941Z,1.85
2023-01-27T01:31:07.251Z,1.55
2023-01-27T01:36:15.135Z,1.98
2023-01-27T01:41:20.885Z,1.52
2023-01-27T01:46:24.698Z,2.22
2023-01-27T01:51:33.025Z,2.40
2023-01-27T01:56:39.883Z,2.10
2023-01-27T02:01:43.544Z,2.05
2023-01-27T02:06:56.240Z,2.35
2023-01-27T02:12:00.269Z,2.30
2023-01-27T02:17:05.711Z,2.22
2023-01-27T02:22:16.934Z,1.95
2023-01-27T02:27:22.009Z,1.55
2023-01-27T02:32:26.935Z,2.28
2023-01-27T02:37:34.017Z,2.25
2023-01-27T02:42:39.779Z,1.92
2023-01-27T02:47:43.546Z,2.22
2023-01-27T02:52:47.420Z,2.20
2023-01-27T02:57:54.357Z,2.80
2023-01-27T03:03:36.581Z,2.15
2023-01-27T03:08:40.396Z,2.28
2023-01-27T03:13:45.395Z,2.35
2023-01-27T03:18:50.853Z,1.80
2023-01-27T03:23:55.846Z,1.90
2023-01-27T03:29:15.602Z,3.03
2023-01-27T03:34:21.340Z,2.83
2023-01-27T03:39:45.400Z,3.25
2023-01-27T03:45:07.999Z,3.95
2023-01-27T03:50:13.957Z,2.60
2023-01-27T03:55:17.985Z,3.67
2023-01-27T04:00:23.463Z,3.20
2023-01-27T04:05:44.420Z,3.08
2023-01-27T04:11:08.203Z,3.35
2023-01-27T04:16:13.605Z,3.47
2023-01-27T04:21:17.290Z,4.35
2023-01-27T04:26:21.882Z,3.97
2023-01-27T04:31:27.323Z,4.75
2023-01-27T04:36:31.443Z,4.53
2023-01-27T04:41:35.229Z,4.78
2023-01-27T04:46:40.811Z,4.65
2023-01-27T04:51:46.239Z,5.10
2023-01-27T04:56:57.601Z,5.78
2023-01-27T05:02:04.667Z,5.85
2023-01-27T05:12:11.902Z,6.05
2023-01-27T05:17:17.053Z,6.45
2023-01-27T05:22:20.760Z,6.60
2023-01-27T05:27:24.505Z,8.48
2023-01-27T05:32:31.218Z,6.18
2023-01-27T05:37:34.937Z,6.63
2023-01-27T05:42:38.609Z,7.10
2023-01-27T05:47:43.727Z,5.55
2023-01-27T05:52:47.450Z,5.82
2023-01-27T05:57:51.129Z,4.57
2023-01-27T06:02:56.203Z,5.43
2023-01-27T06:07:59.912Z,4.60
2023-01-27T06:13:04.076Z,4.88
2023-01-27T06:18:09.287Z,4.07
2023-01-27T06:23:15.061Z,4.70
2023-01-27T06:28:28.804Z,4.40
2023-01-27T06:33:34.875Z,4.20
2023-01-27T06:38:38.951Z,3.97
2023-01-27T06:43:42.722Z,4.50
2023-01-27T06:48:47.875Z,3.90
2023-01-27T06:53:51.904Z,4.18
2023-01-27T06:58:55.649Z,4.18
2023-01-27T07:04:00.855Z,3.92
2023-01-27T07:09:04.596Z,4.03
2023-01-27T07:14:10.461Z,4.10
2023-01-27T07:19:16.694Z,3.90
2023-01-27T07:24:20.424Z,3.92
2023-01-27T07:29:24.256Z,3.70
2023-01-27T07:34:29.370Z,3.42
2023-01-27T07:39:33.607Z,3.17
2023-01-27T07:44:37.280Z,3.20
2023-01-27T07:49:42.579Z,3.38
2023-01-27T07:54:46.340Z,3.10
2023-01-27T07:59:53.154Z,3.03
2023-01-27T08:04:58.315Z,3.28
2023-01-27T08:10:02.106Z,2.85
2023-01-27T08:15:06.604Z,2.65
2023-01-27T08:20:13.681Z,2.60
2023-01-27T08:25:17.905Z,3.22
2023-01-27T08:30:22.140Z,2.67
2023-01-27T08:35:27.392Z,2.55
2023-01-27T08:40:31.171Z,2.58
2023-01-27T08:45:35.471Z,2.65
2023-01-27T08:50:40.538Z,2.60
2023-01-27T08:55:44.308Z,2.20
2023-01-27T09:00:48.076Z,3.17
2023-01-27T09:05:53.242Z,2.17
2023-01-27T09:10:57.214Z,2.70
2023-01-27T09:16:02.695Z,2.65
2023-01-27T09:21:08.647Z,2.92
2023-01-27T09:26:12.333Z,2.47
2023-01-27T09:31:16.308Z,2.33
2023-01-27T09:36:22.734Z,2.10
2023-01-27T09:41:48.715Z,2.73
2023-01-27T09:47:19.843Z,2.70
2023-01-27T09:52:47.913Z,2.33
2023-01-27T09:57:59.329Z,2.33
2023-01-27T10:03:23.817Z,2.00
2023-01-27T10:08:53.588Z,1.63
2023-01-27T10:14:12.148Z,1.90
2023-01-27T10:19:31.655Z,1.83
2023-01-27T10:24:50.299Z,1.95
2023-01-27T10:29:59.012Z,1.40
2023-01-27T10:35:15.007Z,1.67
2023-01-27T10:40:27.134Z,1.58
2023-01-27T10:45:38.288Z,1.38
2023-01-27T10:50:45.602Z,1.58
2023-01-27T10:55:59.440Z,1.95
2023-01-27T11:01:20.879Z,1.60
2023-01-27T11:06:28.962Z,1.80
2023-01-27T11:11:49.321Z,1.60
2023-01-27T11:16:55.227Z,1.98
2023-01-27T11:22:08.369Z,1.95
2023-01-27T11:27:23.697Z,1.73
2023-01-27T11:32:44.422Z,2.08
2023-01-27T11:37:50.600Z,2.05
2023-01-27T11:42:58.336Z,2.00
2023-01-27T11:48:04.240Z,1.80
2023-01-27T11:53:15.612Z,2.05
2023-01-27T11:58:26.033Z,1.92
2023-01-27T12:03:44.595Z,1.95
2023-01-27T12:08:49.740Z,1.77
2023-01-27T12:13:56.734Z,2.00
2023-01-27T12:19:04.400Z,1.98
2023-01-27T12:24:22.230Z,2.30
2023-01-27T12:29:30.182Z,1.55
2023-01-27T12:34:38.504Z,1.90
2023-01-27T12:39:46.405Z,1.80
2023-01-27T12:44:51.560Z,2.05
2023-01-27T12:50:21.168Z,2.03
2023-01-27T12:55:33.123Z,2.17
2023-01-27T13:00:38.315Z,1.73
2023-01-27T13:05:43.795Z,2.20
2023-01-27T13:10:52.513Z,2.50
2023-01-27T13:16:06.348Z,2.22
2023-01-27T13:21:16.246Z,2.63
2023-01-27T13:26:23.716Z,2.70
2023-01-27T13:31:41.860Z,2.70
2023-01-27T13:36:51.492Z,2.50
2023-01-27T13:42:05.831Z,2.38
2023-01-27T13:47:16.080Z,2.47
2023-01-27T13:52:19.962Z,2.65
2023-01-27T13:57:52.344Z,2.47
2023-01-27T14:03:27.474Z,2.50
2023-01-27T14:08:57.303Z,2.10
2023-01-27T14:14:19.606Z,1.65
2023-01-27T14:19:36.281Z,2.10
2023-01-27T14:24:46.353Z,1.90
2023-01-27T14:29:56.975Z,2.10
2023-01-27T14:35:28.761Z,2.65
2023-01-27T14:40:36.973Z,3.53
2023-01-27T14:45:47.054Z,2.10
2023-01-27T14:51:03.263Z,2.20
2023-01-27T14:56:15.330Z,2.73
2023-01-27T15:01:30.024Z,2.58
2023-01-27T15:06:44.186Z,2.30
2023-01-27T15:12:12.883Z,2.40
2023-01-27T15:17:30.149Z,2.30
2023-01-27T15:22:45.358Z,2.65
2023-01-27T15:27:53.207Z,2.47
2023-01-27T15:32:57.359Z,2.67
2023-01-27T15:38:20.547Z,2.22
2023-01-27T15:43:25.478Z,2.03
2023-01-27T15:48:34.314Z,2.50
2023-01-27T15:53:44.661Z,2.30
2023-01-27T15:58:56.437Z,2.35
2023-01-27T16:04:14.094Z,2.08
2023-01-27T16:09:34.379Z,2.55
2023-01-27T16:14:46.098Z,2.85
2023-01-27T16:20:03.573Z,2.13
2023-01-27T16:25:23.239Z,2.78
2023-01-27T16:30:36.040Z,2.70
2023-01-27T16:35:47.308Z,2.08
2023-01-27T16:40:55.610Z,2.80
2023-01-27T16:46:02.055Z,2.47
2023-01-27T16:51:14.654Z,2.28
2023-01-27T16:56:22.733Z,3.22
2023-01-27T17:01:29.661Z,3.45
2023-01-27T17:06:33.730Z,3.25
2023-01-27T17:11:38.867Z,3.28
2023-01-27T17:16:44.239Z,3.10
2023-01-27T17:21:53.744Z,3.65
2023-01-27T17:27:03.123Z,3.70
2023-01-27T17:32:20.459Z,3.50
2023-01-27T17:37:25.323Z,3.83
2023-01-27T17:42:33.955Z,3.28
2023-01-27T17:47:44.172Z,4.00
2023-01-27T17:52:52.374Z,4.03
2023-01-27T17:58:03.466Z,4.90
2023-01-27T18:03:13.312Z,4.68
2023-01-27T18:08:18.926Z,4.47
2023-01-27T18:13:38.313Z,4.25
2023-01-27T18:18:42.105Z,4.55
2023-01-27T18:23:48.280Z,3.97
2023-01-27T18:28:56.376Z,3.97
2023-01-27T18:34:02.162Z,3.88
2023-01-27T18:39:28.282Z,4.13
2023-01-27T18:44:37.128Z,3.97
2023-01-27T18:49:40.899Z,3.67
2023-01-27T18:54:45.082Z,3.70
2023-01-27T18:59:50.257Z,4.15
2023-01-27T19:04:54.118Z,4.00
2023-01-27T19:09:57.767Z,4.32
2023-01-27T19:15:02.853Z,5.10
2023-01-27T19:20:18.508Z,4.63
2023-01-27T19:25:23.032Z,3.90
2023-01-27T19:30:32.603Z,4.78
2023-01-27T19:35:36.814Z,4.80
2023-01-27T19:40:41.109Z,3.75
2023-01-27T19:45:48.848Z,4.05
2023-01-27T19:50:54.210Z,4.60
2023-01-27T19:55:59.210Z,4.90
2023-01-27T20:01:04.540Z,4.55
2023-01-27T20:06:15.987Z,4.78
2023-01-27T20:11:32.842Z,5.47
2023-01-27T20:16:38.049Z,4.55
2023-01-27T20:21:41.857Z,4.60
2023-01-27T20:26:45.765Z,4.90
2023-01-27T20:31:53.815Z,5.15
2023-01-27T20:36:57.862Z,4.50
2023-01-27T20:42:01.579Z,5.25
2023-01-27T20:47:06.740Z,4.72
2023-01-27T20:52:11.023Z,5.70
2023-01-27T20:57:14.872Z,4.22
2023-01-27T21:02:19.885Z,4.50
2023-01-27T21:07:24.677Z,4.10
2023-01-27T21:12:29.507Z,4.00
2023-01-27T21:17:35.771Z,4.20
2023-01-27T21:22:39.644Z,3.20
2023-01-27T21:27:45.270Z,3.20
2023-01-27T21:32:50.485Z,3.97
2023-01-27T21:37:54.230Z,3.22
2023-01-27T21:43:15.482Z,2.90
2023-01-27T21:48:20.576Z,3.95
2023-01-27T21:53:24.623Z,3.90
2023-01-27T21:58:28.299Z,4.00
2023-01-27T22:03:33.562Z,3.95
2023-01-27T22:08:37.681Z,3.97
2023-01-27T22:13:41.295Z,3.50
2023-01-27T22:18:46.332Z,3.40
2023-01-27T22:23:50.023Z,3.88
2023-01-27T22:28:53.673Z,2.90
2023-01-27T22:33:58.893Z,3.70
2023-01-27T22:39:02.641Z,4.05
2023-01-27T22:44:06.483Z,3.35
2023-01-27T22:49:12.139Z,2.67
2023-01-27T22:54:15.817Z,3.63
2023-01-27T22:59:19.526Z,3.63
2023-01-27T23:04:24.549Z,3.08
2023-01-27T23:09:28.232Z,3.80
2023-01-27T23:14:31.952Z,2.95
2023-01-27T23:19:37.093Z,3.50
2023-01-27T23:24:40.751Z,3.50
2023-01-27T23:29:44.459Z,3.28
2023-01-27T23:34:50.375Z,3.78
2023-01-27T23:39:54.089Z,3.95
2023-01-27T23:44:57.793Z,3.35
2023-01-27T23:50:02.904Z,3.25
2023-01-27T23:55:07.914Z,3.75
